createdAt,value
2023-03-01T00:00:52.768Z,76.41
2023-03-01T00:03:09.999Z,76.44
2023-03-01T00:05:27.352Z,77.19
2023-03-01T00:07:44.374Z,76.80
2023-03-01T00:10:01.720Z,76.61
2023-03-01T00:12:19.036Z,76.56
2023-03-01T00:14:36.152Z,77.04
2023-03-01T00:16:53.567Z,76.73
2023-03-01T00:19:11.063Z,76.81
2023-03-01T00:21:28.119Z,76.55
2023-03-01T00:23:45.210Z,76.52
2023-03-01T00:26:03.243Z,76.73
2023-03-01T00:28:20.288Z,76.40
2023-03-01T00:30:37.313Z,76.77
2023-03-01T00:32:54.639Z,76.43
2023-03-01T00:35:11.658Z,76.82
2023-03-01T00:37:28.659Z,76.61
2023-03-01T00:39:46.696Z,77.04
2023-03-01T00:42:03.771Z,77.11
2023-03-01T00:44:21.112Z,77.20
2023-03-01T00:46:38.136Z,76.93
2023-03-01T00:48:56.434Z,77.30
2023-03-01T00:51:14.415Z,77.74
2023-03-01T00:53:32.368Z,77.46
2023-03-01T00:55:49.367Z,77.79
2023-03-01T00:58:06.354Z,77.89
2023-03-01T01:00:23.351Z,77.71
2023-03-01T01:02:40.375Z,77.79
2023-03-01T01:04:57.443Z,77.75
2023-03-01T01:07:15.402Z,77.74
2023-03-01T01:09:34.893Z,77.86
2023-03-01T01:11:52.191Z,77.84
2023-03-01T01:14:09.448Z,78.10
2023-03-01T01:16:26.564Z,77.83
2023-03-01T01:18:44.778Z,77.81
2023-03-01T01:21:01.743Z,77.78
2023-03-01T01:23:18.746Z,77.41
2023-03-01T01:25:35.778Z,77.51
2023-03-01T01:27:52.714Z,77.52
2023-03-01T01:30:09.726Z,78.06
2023-03-01T01:32:27.446Z,78.53
2023-03-01T01:34:44.636Z,78.46
2023-03-01T01:37:03.043Z,78.44
2023-03-01T01:39:20.303Z,78.33
2023-03-01T01:41:37.618Z,78.72
2023-03-01T01:43:54.691Z,78.49
2023-03-01T01:46:11.948Z,78.77
2023-03-01T01:48:29.229Z,78.61
2023-03-01T01:50:46.455Z,78.91
2023-03-01T01:53:03.491Z,78.55
2023-03-01T01:55:21.811Z,79.03
2023-03-01T01:57:39.238Z,78.51
2023-03-01T01:59:56.556Z,79.11
2023-03-01T02:02:13.650Z,78.57
2023-03-01T02:04:30.588Z,78.32
2023-03-01T02:06:47.528Z,78.32
2023-03-01T02:09:04.527Z,78.83
2023-03-01T02:11:21.592Z,79.06
2023-03-01T02:13:39.599Z,79.15
2023-03-01T02:15:56.965Z,79.29
2023-03-01T02:18:13.895Z,79.77
2023-03-01T02:20:31.894Z,79.67
2023-03-01T02:22:48.830Z,79.22
2023-03-01T02:25:06.075Z,79.27
2023-03-01T02:27:23.221Z,79.17
2023-03-01T02:29:40.934Z,79.37
2023-03-01T02:31:58.984Z,79.24
2023-03-01T02:34:16.336Z,79.53
2023-03-01T02:36:34.643Z,80.15
2023-03-01T02:38:51.697Z,79.66
2023-03-01T02:41:08.903Z,80.44
2023-03-01T02:43:25.937Z,79.99
2023-03-01T02:45:43.230Z,79.83
2023-03-01T02:48:01.471Z,79.85
2023-03-01T02:50:18.354Z,79.75
2023-03-01T02:52:35.410Z,80.31
2023-03-01T02:54:52.456Z,80.40
2023-03-01T02:57:09.450Z,80.82
2023-03-01T02:59:26.379Z,80.96
2023-03-01T03:01:44.185Z,80.77
2023-03-01T03:04:02.033Z,80.54
2023-03-01T03:06:18.980Z,80.54
2023-03-01T03:08:36.086Z,80.32
2023-03-01T03:10:53.052Z,80.16
2023-03-01T03:13:10.328Z,80.51
2023-03-01T03:15:27.246Z,80.57
2023-03-01T03:17:46.210Z,80.58
2023-03-01T03:20:03.793Z,80.54
2023-03-01T03:22:20.786Z,80.67
2023-03-01T03:24:37.751Z,80.04
2023-03-01T03:26:55.090Z,80.14
2023-03-01T03:29:13.168Z,79.80
2023-03-01T03:31:30.481Z,80.75
2023-03-01T03:33:47.897Z,80.80
2023-03-01T03:36:04.944Z,80.95
2023-03-01T03:38:22.311Z,81.15
2023-03-01T03:40:39.697Z,80.78
2023-03-01T03:42:56.751Z,80.54
2023-03-01T03:45:13.761Z,80.38
2023-03-01T03:47:30.820Z,80.48
2023-03-01T03:49:49.044Z,80.61
2023-03-01T03:52:06.365Z,80.81
2023-03-01T03:54:23.608Z,80.69
2023-03-01T03:56:41.053Z,80.68
2023-03-01T03:58:58.288Z,81.15
2023-03-01T04:01:15.492Z,80.75
2023-03-01T04:03:32.576Z,81.01
2023-03-01T04:05:50.002Z,81.25
2023-03-01T04:08:07.271Z,81.34
2023-03-01T04:10:24.419Z,81.34
2023-03-01T04:12:41.713Z,81.12
2023-03-01T04:14:58.677Z,81.40
2023-03-01T04:17:15.614Z,81.20
2023-03-01T04:19:33.612Z,81.48
2023-03-01T04:21:50.529Z,81.21
2023-03-01T04:24:07.846Z,81.20
2023-03-01T04:26:25.150Z,81.19
2023-03-01T04:28:42.413Z,81.21
2023-03-01T04:30:59.416Z,81.53
2023-03-01T04:33:17.681Z,81.70
2023-03-01T04:35:35.095Z,81.36
2023-03-01T04:37:52.431Z,81.85
2023-03-01T04:40:09.445Z,81.33
2023-03-01T04:42:26.481Z,81.49
2023-03-01T04:44:43.387Z,80.78
2023-03-01T04:47:00.686Z,80.22
2023-03-01T04:49:17.975Z,79.96
2023-03-01T04:51:35.013Z,80.16
2023-03-01T04:53:52.325Z,79.72
2023-03-01T04:56:09.702Z,80.56
2023-03-01T04:58:26.967Z,80.05
2023-03-01T05:00:45.277Z,79.46
2023-03-01T05:03:02.290Z,79.85
2023-03-01T05:05:19.437Z,80.29
2023-03-01T05:07:36.444Z,80.59
2023-03-01T05:09:55.141Z,80.73
2023-03-01T05:12:13.550Z,80.81
2023-03-01T05:14:30.509Z,81.10
2023-03-01T05:16:47.641Z,80.50
2023-03-01T05:19:04.615Z,80.51
2023-03-01T05:21:21.713Z,80.13
2023-03-01T05:23:39.076Z,81.11
2023-03-01T05:25:56.016Z,80.97
2023-03-01T05:28:13.757Z,80.82
2023-03-01T05:30:32.128Z,80.38
2023-03-01T05:32:49.571Z,80.95
2023-03-01T05:35:06.659Z,80.88
2023-03-01T05:37:23.699Z,81.50
2023-03-01T05:39:41.058Z,80.74
2023-03-01T05:41:59.374Z,79.85
2023-03-01T05:44:16.649Z,80.70
2023-03-01T05:46:33.715Z,80.40
2023-03-01T05:48:50.777Z,80.36
2023-03-01T05:51:09.054Z,80.63
2023-03-01T05:53:26.118Z,81.50
2023-03-01T05:55:43.176Z,80.69
2023-03-01T05:58:00.485Z,81.15
2023-03-01T06:00:17.582Z,80.35
2023-03-01T06:02:34.662Z,80.11
2023-03-01T06:04:51.739Z,80.50
2023-03-01T06:07:08.821Z,80.56
2023-03-01T06:09:26.299Z,80.92
2023-03-01T06:11:43.270Z,80.80
2023-03-01T06:14:00.273Z,81.17
2023-03-01T06:16:18.317Z,80.79
2023-03-01T06:18:36.799Z,80.69
2023-03-01T06:20:53.951Z,80.66
2023-03-01T06:23:11.285Z,81.30
2023-03-01T06:25:28.423Z,81.15
2023-03-01T06:27:45.529Z,81.21
2023-03-01T06:30:02.457Z,81.49
2023-03-01T06:32:19.827Z,81.34
2023-03-01T06:34:36.797Z,81.52
2023-03-01T06:36:54.157Z,82.25
2023-03-01T06:39:11.216Z,81.73
2023-03-01T06:41:28.924Z,81.98
2023-03-01T06:43:46.248Z,81.82
2023-03-01T06:46:04.227Z,81.49
2023-03-01T06:48:21.322Z,82.14
2023-03-01T06:50:38.799Z,82.26
2023-03-01T06:52:56.244Z,82.22
2023-03-01T06:55:13.621Z,82.16
2023-03-01T06:57:31.893Z,82.59
2023-03-01T06:59:49.268Z,82.44
2023-03-01T07:02:06.330Z,82.68
2023-03-01T07:04:24.687Z,82.76
2023-03-01T07:06:41.960Z,82.68
2023-03-01T07:08:59.047Z,82.84
2023-03-01T07:11:16.087Z,82.41
2023-03-01T07:13:33.400Z,82.41
2023-03-01T07:15:51.851Z,82.76
2023-03-01T07:18:08.971Z,82.40
2023-03-01T07:20:26.661Z,82.71
2023-03-01T07:22:44.205Z,82.72
2023-03-01T07:25:01.551Z,82.50
2023-03-01T07:27:18.588Z,82.46
2023-03-01T07:29:35.677Z,82.55
2023-03-01T07:31:54.115Z,82.84
2023-03-01T07:34:11.423Z,82.92
2023-03-01T07:36:29.857Z,83.05
2023-03-01T07:38:47.334Z,83.27
2023-03-01T07:41:05.647Z,83.52
2023-03-01T07:43:22.774Z,83.61
2023-03-01T07:45:40.150Z,84.12
2023-03-01T07:47:57.246Z,83.74
2023-03-01T07:50:14.683Z,83.93
2023-03-01T07:52:31.803Z,84.18
2023-03-01T07:54:48.863Z,83.88
2023-03-01T07:57:06.235Z,84.05
2023-03-01T07:59:23.613Z,83.59
2023-03-01T08:01:41.011Z,83.01
2023-03-01T08:03:58.026Z,83.06
2023-03-01T08:06:15.078Z,82.80
2023-03-01T08:08:32.207Z,82.17
2023-03-01T08:10:49.182Z,80.80
2023-03-01T08:13:06.401Z,81.96
2023-03-01T08:15:23.451Z,81.53
2023-03-01T08:17:40.765Z,80.99
2023-03-01T08:19:58.963Z,79.61
2023-03-01T08:22:16.188Z,78.97
2023-03-01T08:24:33.477Z,77.48
2023-03-01T08:26:50.568Z,77.76
2023-03-01T08:29:08.854Z,75.61
2023-03-01T08:31:26.112Z,75.31
2023-03-01T08:33:43.158Z,74.61
2023-03-01T08:36:00.503Z,74.91
2023-03-01T08:38:17.793Z,74.71
2023-03-01T08:40:34.806Z,74.28
2023-03-01T08:42:51.920Z,71.94
2023-03-01T08:45:09.309Z,72.02
2023-03-01T08:47:27.396Z,70.33
2023-03-01T08:49:44.661Z,67.74
2023-03-01T08:52:01.716Z,68.97
2023-03-01T08:54:18.781Z,67.69
2023-03-01T08:56:36.018Z,66.06
2023-03-01T08:58:54.307Z,65.09
2023-03-01T09:01:11.238Z,64.57
2023-03-01T09:03:28.372Z,62.89
2023-03-01T09:05:45.243Z,63.37
2023-03-01T09:08:02.409Z,62.01
2023-03-01T09:10:19.541Z,61.97
2023-03-01T09:12:36.744Z,62.31
2023-03-01T09:14:54.024Z,59.23
2023-03-01T09:17:11.389Z,59.87
2023-03-01T09:19:28.523Z,59.45
2023-03-01T09:21:45.940Z,59.20
2023-03-01T09:24:02.883Z,59.73
2023-03-01T09:26:19.853Z,58.43
2023-03-01T09:28:36.822Z,58.40
2023-03-01T09:30:54.020Z,58.79
2023-03-01T09:33:11.330Z,58.03
2023-03-01T09:35:28.676Z,57.85
2023-03-01T09:37:45.850Z,57.52
2023-03-01T09:40:03.877Z,56.83
2023-03-01T09:42:21.201Z,55.52
2023-03-01T09:44:38.599Z,56.02
2023-03-01T09:46:55.698Z,55.02
2023-03-01T09:49:13.762Z,55.88
2023-03-01T09:51:31.121Z,55.43
2023-03-01T09:53:48.172Z,54.36
2023-03-01T09:56:06.186Z,55.76
2023-03-01T09:58:23.466Z,54.36
2023-03-01T10:00:40.661Z,54.33
2023-03-01T10:02:57.689Z,54.01
2023-03-01T10:05:15.044Z,54.01
2023-03-01T10:07:33.152Z,53.96
2023-03-01T10:09:50.462Z,53.70
2023-03-01T10:12:08.737Z,53.29
2023-03-01T10:14:25.741Z,53.43
2023-03-01T10:16:42.832Z,52.51
2023-03-01T10:19:00.061Z,52.13
2023-03-01T10:21:18.157Z,52.64
2023-03-01T10:23:35.455Z,51.93
2023-03-01T10:25:52.734Z,52.65
2023-03-01T10:28:09.706Z,52.26
2023-03-01T10:30:26.719Z,52.29
2023-03-01T10:32:43.786Z,51.20
2023-03-01T10:35:01.088Z,50.92
2023-03-01T10:37:20.574Z,50.42
2023-03-01T10:39:37.414Z,51.21
2023-03-01T10:41:54.716Z,50.50
2023-03-01T10:44:12.927Z,49.83
2023-03-01T10:46:30.150Z,49.84
2023-03-01T10:48:47.290Z,48.91
2023-03-01T10:51:04.229Z,48.58
2023-03-01T10:53:21.521Z,48.16
2023-03-01T10:55:38.554Z,48.13
2023-03-01T10:57:55.592Z,48.16
2023-03-01T11:00:12.533Z,47.66
2023-03-01T11:02:29.661Z,48.25
2023-03-01T11:04:46.782Z,47.38
2023-03-01T11:07:03.791Z,47.80
2023-03-01T11:09:22.082Z,47.38
2023-03-01T11:11:39.094Z,47.10
2023-03-01T11:13:56.231Z,46.69
2023-03-01T11:16:13.257Z,46.19
2023-03-01T11:18:45.903Z,45.99
2023-03-01T11:21:04.632Z,46.21
2023-03-01T11:23:21.633Z,46.27
2023-03-01T11:25:38.934Z,46.33
2023-03-01T11:27:55.949Z,45.09
2023-03-01T11:30:13.036Z,46.23
2023-03-01T11:32:30.548Z,44.95
2023-03-01T11:34:47.700Z,45.19
2023-03-01T11:37:04.952Z,46.23
2023-03-01T11:39:22.218Z,44.46
2023-03-01T11:41:39.185Z,44.51
2023-03-01T11:43:57.208Z,44.41
2023-03-01T11:46:14.262Z,43.40
2023-03-01T11:48:47.050Z,45.41
2023-03-01T11:51:05.949Z,43.29
2023-03-01T11:53:23.239Z,44.66
2023-03-01T11:55:40.202Z,44.01
2023-03-01T11:57:57.264Z,45.44
2023-03-01T12:00:14.629Z,45.63
2023-03-01T12:02:31.746Z,43.60
2023-03-01T12:04:49.841Z,44.23
2023-03-01T12:07:07.167Z,43.12
2023-03-01T12:09:24.475Z,44.28
2023-03-01T12:11:42.038Z,42.95
2023-03-01T12:13:59.214Z,44.11
2023-03-01T12:16:25.927Z,43.50
2023-03-01T12:18:49.330Z,42.71
2023-03-01T12:21:06.264Z,43.21
2023-03-01T12:23:23.250Z,42.79
2023-03-01T12:25:41.559Z,42.04
2023-03-01T12:27:58.623Z,42.86
2023-03-01T12:30:15.560Z,43.19
2023-03-01T12:32:34.650Z,41.87
2023-03-01T12:34:52.785Z,43.13
2023-03-01T12:37:10.639Z,43.86
2023-03-01T12:39:27.663Z,42.46
2023-03-01T12:41:45.994Z,42.21
2023-03-01T12:44:03.077Z,42.75
2023-03-01T12:46:20.347Z,42.05
2023-03-01T12:48:37.343Z,43.64
2023-03-01T12:50:54.423Z,41.59
2023-03-01T12:53:12.680Z,42.25
2023-03-01T12:55:29.922Z,41.67
2023-03-01T12:57:48.192Z,41.88
2023-03-01T13:00:05.196Z,41.68
2023-03-01T13:02:22.307Z,41.45
2023-03-01T13:04:39.742Z,41.86
2023-03-01T13:06:57.028Z,41.06
2023-03-01T13:09:13.977Z,41.19
2023-03-01T13:11:31.010Z,42.42
2023-03-01T13:13:48.065Z,41.70
2023-03-01T13:16:05.010Z,41.38
2023-03-01T13:18:22.221Z,40.96
2023-03-01T13:20:39.492Z,41.88
2023-03-01T13:22:57.485Z,41.48
2023-03-01T13:25:14.436Z,40.50
2023-03-01T13:27:31.501Z,42.20
2023-03-01T13:29:48.465Z,41.14
2023-03-01T13:32:05.543Z,41.94
2023-03-01T13:34:22.653Z,40.50
2023-03-01T13:36:39.985Z,41.58
2023-03-01T13:38:58.343Z,41.16
2023-03-01T13:41:15.393Z,40.31
2023-03-01T13:43:32.601Z,41.15
2023-03-01T13:45:49.657Z,41.60
2023-03-01T13:48:07.973Z,42.83
2023-03-01T13:50:24.872Z,43.36
2023-03-01T13:52:41.912Z,43.79
2023-03-01T13:54:58.912Z,43.64
2023-03-01T13:57:16.241Z,43.33
2023-03-01T13:59:33.346Z,43.13
2023-03-01T14:01:50.306Z,43.10
2023-03-01T14:04:07.390Z,43.10
2023-03-01T14:06:24.776Z,43.10
2023-03-01T14:08:41.892Z,44.04
2023-03-01T14:10:58.939Z,44.63
2023-03-01T14:13:16.889Z,44.92
2023-03-01T14:15:33.833Z,44.61
2023-03-01T14:17:51.085Z,45.36
2023-03-01T14:20:08.421Z,44.75
2023-03-01T14:22:25.423Z,45.52
2023-03-01T14:24:42.692Z,44.96
2023-03-01T14:27:00.907Z,43.74
2023-03-01T14:29:18.127Z,43.73
2023-03-01T14:31:47.149Z,44.70
2023-03-01T14:34:08.902Z,45.03
2023-03-01T14:36:26.160Z,44.77
2023-03-01T14:38:43.209Z,44.41
2023-03-01T14:41:01.198Z,44.10
2023-03-01T14:43:18.524Z,45.58
2023-03-01T14:45:35.576Z,46.46
2023-03-01T14:47:52.799Z,45.62
2023-03-01T14:50:10.045Z,44.95
2023-03-01T14:52:27.147Z,45.25
2023-03-01T14:54:44.445Z,44.76
2023-03-01T14:57:01.721Z,44.75
2023-03-01T14:59:18.714Z,45.90
2023-03-01T15:01:35.899Z,45.91
2023-03-01T15:03:53.235Z,46.35
2023-03-01T15:06:10.259Z,47.16
2023-03-01T15:08:28.815Z,47.07
2023-03-01T15:10:45.751Z,45.52
2023-03-01T15:13:02.676Z,46.25
2023-03-01T15:15:19.895Z,46.29
2023-03-01T15:17:36.768Z,45.21
2023-03-01T15:19:54.080Z,45.94
2023-03-01T15:22:12.123Z,45.55
2023-03-01T15:24:29.127Z,45.42
2023-03-01T15:26:47.376Z,45.11
2023-03-01T15:29:04.438Z,46.59
2023-03-01T15:31:22.494Z,46.44
2023-03-01T15:33:39.663Z,43.84
2023-03-01T15:35:57.743Z,44.05
2023-03-01T15:38:21.515Z,44.56
2023-03-01T15:40:42.980Z,42.17
2023-03-01T15:43:00.017Z,41.99
2023-03-01T15:45:17.286Z,39.50
2023-03-01T15:47:34.637Z,38.77
2023-03-01T15:49:55.181Z,39.07
2023-03-01T15:52:12.575Z,38.55
2023-03-01T15:54:29.612Z,39.59
2023-03-01T15:56:46.912Z,38.03
2023-03-01T15:59:03.963Z,37.17
2023-03-01T16:01:20.988Z,37.28
2023-03-01T16:03:38.929Z,36.46
2023-03-01T16:05:55.950Z,37.63
2023-03-01T16:08:12.896Z,38.30
2023-03-01T16:10:29.933Z,40.94
2023-03-01T16:12:47.209Z,42.21
2023-03-01T16:15:04.203Z,43.77
2023-03-01T16:17:21.283Z,45.27
2023-03-01T16:19:38.590Z,46.68
2023-03-01T16:21:56.544Z,47.58
2023-03-01T16:24:13.638Z,47.95
2023-03-01T16:26:32.149Z,49.17
2023-03-01T16:28:49.570Z,48.94
2023-03-01T16:31:07.615Z,48.03
2023-03-01T16:33:31.948Z,49.12
2023-03-01T16:35:50.822Z,50.15
2023-03-01T16:38:08.173Z,49.77
2023-03-01T16:40:25.202Z,49.37
2023-03-01T16:42:42.198Z,50.36
2023-03-01T16:44:59.236Z,51.27
2023-03-01T16:47:16.469Z,52.08
2023-03-01T16:49:33.778Z,53.37
2023-03-01T16:51:51.101Z,54.05
2023-03-01T16:54:09.106Z,54.05
2023-03-01T16:56:26.136Z,54.13
2023-03-01T16:58:43.118Z,54.55
2023-03-01T17:01:00.445Z,53.81
2023-03-01T17:03:18.508Z,54.49
2023-03-01T17:05:35.614Z,54.93
2023-03-01T17:07:52.807Z,55.46
2023-03-01T17:10:10.228Z,56.29
2023-03-01T17:12:27.352Z,56.98
2023-03-01T17:14:45.409Z,58.80
2023-03-01T17:17:02.341Z,60.05
2023-03-01T17:19:19.936Z,60.00
2023-03-01T17:21:37.248Z,59.36
2023-03-01T17:23:55.144Z,59.51
2023-03-01T17:26:12.050Z,60.84
2023-03-01T17:28:29.405Z,60.22
2023-03-01T17:30:46.643Z,61.43
2023-03-01T17:33:03.946Z,62.56
2023-03-01T17:35:22.256Z,61.87
2023-03-01T17:37:39.369Z,62.40
2023-03-01T17:39:56.480Z,63.92
2023-03-01T17:42:13.733Z,64.16
2023-03-01T17:44:31.041Z,63.71
2023-03-01T17:46:48.444Z,64.06
2023-03-01T17:49:05.453Z,64.49
2023-03-01T17:51:22.539Z,65.61
2023-03-01T17:53:39.825Z,65.59
2023-03-01T17:55:57.143Z,65.30
2023-03-01T17:58:14.104Z,66.05
2023-03-01T18:00:31.461Z,66.56
2023-03-01T18:02:48.578Z,65.92
2023-03-01T18:05:06.002Z,66.78
2023-03-01T18:07:23.296Z,66.58
2023-03-01T18:09:40.582Z,66.65
2023-03-01T18:11:57.879Z,66.93
2023-03-01T18:14:15.125Z,66.60
2023-03-01T18:16:33.452Z,67.76
2023-03-01T18:18:51.132Z,67.07
2023-03-01T18:21:08.422Z,67.16
2023-03-01T18:23:25.376Z,67.59
2023-03-01T18:25:42.442Z,68.05
2023-03-01T18:28:00.878Z,67.95
2023-03-01T18:30:19.092Z,68.15
2023-03-01T18:32:36.198Z,68.31
2023-03-01T18:34:53.552Z,68.62
2023-03-01T18:37:10.805Z,68.50
2023-03-01T18:39:27.836Z,68.67
2023-03-01T18:41:45.212Z,69.08
2023-03-01T18:44:03.521Z,69.07
2023-03-01T18:46:20.610Z,69.00
2023-03-01T18:48:37.587Z,69.29
2023-03-01T18:50:54.858Z,69.28
2023-03-01T18:53:12.005Z,69.88
2023-03-01T18:55:29.324Z,69.93
2023-03-01T18:57:47.376Z,69.72
2023-03-01T19:00:05.447Z,69.89
2023-03-01T19:02:22.591Z,69.85
2023-03-01T19:04:39.645Z,69.38
2023-03-01T19:06:56.654Z,69.68
2023-03-01T19:09:13.754Z,69.91
2023-03-01T19:11:31.997Z,70.52
2023-03-01T19:13:49.255Z,70.69
2023-03-01T19:16:06.621Z,70.42
2023-03-01T19:18:24.059Z,70.56
2023-03-01T19:20:41.315Z,71.15
2023-03-01T19:22:58.342Z,70.78
2023-03-01T19:25:15.658Z,71.24
2023-03-01T19:27:32.777Z,70.85
2023-03-01T19:29:50.149Z,70.95
2023-03-01T19:32:07.459Z,71.40
2023-03-01T19:34:24.759Z,71.39
2023-03-01T19:36:41.852Z,70.87
2023-03-01T19:38:59.178Z,70.95
2023-03-01T19:41:16.128Z,71.86
2023-03-01T19:43:34.480Z,71.57
2023-03-01T19:45:51.946Z,72.00
2023-03-01T19:48:08.998Z,72.54
2023-03-01T19:50:26.063Z,72.66
2023-03-01T19:52:43.360Z,72.39
2023-03-01T19:55:08.862Z,72.50
2023-03-01T19:57:26.658Z,72.88
2023-03-01T19:59:43.706Z,71.96
2023-03-01T20:02:00.808Z,72.74
2023-03-01T20:04:17.891Z,72.46
2023-03-01T20:06:35.437Z,72.46
2023-03-01T20:08:52.622Z,73.08
2023-03-01T20:11:09.938Z,72.37
2023-03-01T20:13:27.295Z,73.01
2023-03-01T20:15:44.682Z,72.66
2023-03-01T20:18:02.180Z,73.02
2023-03-01T20:20:20.457Z,72.77
2023-03-01T20:22:37.404Z,72.68
2023-03-01T20:24:55.201Z,72.66
2023-03-01T20:27:13.492Z,73.50
2023-03-01T20:29:30.507Z,73.46
2023-03-01T20:31:47.886Z,73.19
2023-03-01T20:34:05.911Z,73.05
2023-03-01T20:36:22.922Z,73.74
2023-03-01T20:38:40.211Z,73.30
2023-03-01T20:40:57.512Z,73.36
2023-03-01T20:43:14.729Z,73.42
2023-03-01T20:45:31.848Z,74.19
2023-03-01T20:47:49.128Z,73.71
2023-03-01T20:50:06.513Z,73.46
2023-03-01T20:52:23.429Z,74.17
2023-03-01T20:54:41.466Z,73.93
2023-03-01T20:56:58.763Z,74.65
2023-03-01T20:59:15.793Z,74.12
2023-03-01T21:01:32.777Z,73.90
2023-03-01T21:03:49.861Z,74.38
2023-03-01T21:06:08.227Z,73.84
2023-03-01T21:08:25.370Z,73.82
2023-03-01T21:10:42.598Z,73.71
2023-03-01T21:12:59.540Z,73.79
2023-03-01T21:15:28.421Z,73.84
2023-03-01T21:17:46.365Z,73.95
2023-03-01T21:20:03.366Z,74.34
2023-03-01T21:22:20.306Z,74.35
2023-03-01T21:24:37.398Z,74.03
2023-03-01T21:26:54.392Z,74.18
2023-03-01T21:29:11.496Z,74.09
2023-03-01T21:31:28.865Z,74.10
2023-03-01T21:33:45.909Z,74.28
2023-03-01T21:36:03.848Z,75.34
2023-03-01T21:38:21.172Z,75.21
2023-03-01T21:40:38.227Z,74.82
2023-03-01T21:42:55.455Z,74.83
2023-03-01T21:45:12.853Z,75.30
2023-03-01T21:47:30.214Z,74.71
2023-03-01T21:49:47.780Z,75.29
2023-03-01T21:52:05.782Z,75.59
2023-03-01T21:54:23.047Z,75.10
2023-03-01T21:56:40.989Z,75.22
2023-03-01T21:58:58.004Z,75.32
2023-03-01T22:01:15.003Z,75.83
2023-03-01T22:03:31.999Z,75.35
2023-03-01T22:05:48.940Z,75.51
2023-03-01T22:08:06.203Z,76.38
2023-03-01T22:10:23.103Z,75.33
2023-03-01T22:12:40.116Z,75.77
2023-03-01T22:14:58.084Z,76.11
2023-03-01T22:17:15.401Z,76.15
2023-03-01T22:19:32.466Z,76.25
2023-03-01T22:21:49.934Z,76.17
2023-03-01T22:24:06.996Z,76.39
2023-03-01T22:26:25.427Z,76.40
2023-03-01T22:28:44.624Z,76.07
2023-03-01T22:31:02.818Z,76.13
2023-03-01T22:33:19.783Z,76.21
2023-03-01T22:35:36.850Z,75.96
2023-03-01T22:37:54.143Z,76.22
2023-03-01T22:40:11.528Z,76.48
2023-03-01T22:42:28.852Z,76.03
2023-03-01T22:44:46.208Z,76.71
2023-03-01T22:47:03.278Z,76.91
2023-03-01T22:49:20.377Z,76.75
2023-03-01T22:51:37.735Z,76.88
2023-03-01T22:53:54.825Z,76.30
2023-03-01T22:56:12.177Z,76.62
2023-03-01T22:58:29.308Z,76.19
2023-03-01T23:00:46.388Z,76.34
2023-03-01T23:03:03.398Z,76.50
2023-03-01T23:05:20.856Z,76.70
2023-03-01T23:07:37.847Z,76.84
2023-03-01T23:09:54.925Z,76.60
2023-03-01T23:12:11.860Z,76.36
2023-03-01T23:14:29.151Z,76.68
2023-03-01T23:16:46.438Z,77.13
2023-03-01T23:19:03.490Z,76.58
2023-03-01T23:21:21.397Z,77.25
2023-03-01T23:23:38.481Z,76.63
2023-03-01T23:25:55.442Z,76.68
2023-03-01T23:28:12.767Z,76.50
2023-03-01T23:30:31.072Z,77.08
2023-03-01T23:32:48.148Z,76.74
2023-03-01T23:35:05.446Z,77.27
2023-03-01T23:37:22.782Z,77.12
2023-03-01T23:39:40.051Z,77.29
2023-03-01T23:41:57.381Z,77.56
2023-03-01T23:44:14.377Z,77.81
2023-03-01T23:46:31.729Z,77.91
2023-03-01T23:48:49.497Z,77.53
2023-03-01T23:51:06.846Z,77.75
2023-03-01T23:53:23.816Z,77.84
2023-03-01T23:55:40.816Z,77.49
2023-03-01T23:57:57.750Z,77.94
